Time,TemperatureF,DewpointF,PressureIn,WindDirection,WindDirectionDegrees,WindSpeedMPH,WindSpeedGustMPH,Humidity,HourlyPrecipIn,Conditions,Clouds,dailyrainin,SoftwareType,DateUTC
2013-08-27 00:12:00,46.0,45.0,30.63,SSE,159,10.0,21.0,97,0.01,,,1.30,,2013-08-27 07:12:00,
2013-08-27 00:21:00,46.0,45.0,30.63,SSE,165,10.0,20.0,97,0.00,,,1.30,,2013-08-27 07:21:00,
2013-08-27 00:52:00,46.0,45.0,30.63,SSE,159,13.0,21.0,98,0.00,,,1.28,,2013-08-27 07:52:00,
2013-08-27 01:22:00,46.0,45.0,30.63,SSE,157,9.0,16.0,97,0.00,,,1.26,,2013-08-27 08:22:00,
2013-08-27 01:52:00,46.0,45.0,30.62,SSE,152,9.0,17.0,97,0.00,,,1.23,,2013-08-27 08:52:00,
2013-08-27 02:21:00,46.0,45.0,30.61,SSE,162,9.0,15.0,98,0.00,,,1.18,,2013-08-27 09:21:00,
2013-08-27 02:54:00,46.0,45.0,30.61,SSE,150,8.0,17.0,97,0.00,,,1.18,,2013-08-27 09:54:00,
2013-08-27 03:25:00,46.0,45.0,30.61,SSE,151,9.0,19.0,98,0.00,,,1.17,,2013-08-27 10:25:00,
2013-08-27 03:53:00,46.0,45.0,30.60,SSE,151,10.0,22.0,97,0.00,,,1.17,,2013-08-27 10:53:00,
2013-08-27 04:22:00,45.0,44.0,30.60,SSE,150,11.0,25.0,97,0.00,,,1.17,,2013-08-27 11:22:00,
2013-08-27 04:52:00,45.0,44.0,30.60,SSE,150,11.0,19.0,97,0.00,,,1.17,,2013-08-27 11:52:00,
2013-08-27 05:21:00,45.0,44.0,30.60,SE,143,10.0,19.0,97,0.00,,,1.17,,2013-08-27 12:21:00,
2013-08-27 05:52:00,45.0,44.0,30.61,SSE,155,9.0,19.0,97,0.00,,,1.17,,2013-08-27 12:52:00,
2013-08-27 06:22:00,45.0,44.0,30.62,SSE,155,8.0,17.0,97,0.00,,,1.17,,2013-08-27 13:22:00,
2013-08-27 06:52:00,45.0,44.0,30.62,SE,145,9.0,19.0,96,0.00,,,1.16,,2013-08-27 13:52:00,
2013-08-27 07:22:00,46.0,45.0,30.62,SE,144,10.0,21.0,96,0.00,,,1.13,,2013-08-27 14:22:00,
2013-08-27 07:53:00,45.0,44.0,30.63,SE,132,10.0,20.0,96,0.00,,,1.11,,2013-08-27 14:53:00,
2013-08-27 08:22:00,46.0,45.0,30.63,SSE,147,9.0,20.0,96,0.00,,,1.10,,2013-08-27 15:22:00,
2013-08-27 08:58:00,46.0,45.0,30.63,SSE,156,9.0,19.0,96,0.00,,,1.03,,2013-08-27 15:58:00,
2013-08-27 09:27:00,46.0,45.0,30.63,SSE,159,7.0,17.0,95,0.00,,,1.02,,2013-08-27 16:27:00,
2013-08-27 09:55:00,46.0,45.0,30.64,SSE,151,9.0,16.0,96,0.00,,,1.01,,2013-08-27 16:55:00,
2013-08-27 10:22:00,47.0,46.0,30.65,SSE,159,6.0,18.0,96,0.00,,,1.00,,2013-08-27 17:22:00,
2013-08-27 10:52:00,47.0,46.0,30.65,SSE,155,10.0,21.0,96,0.00,,,1.00,,2013-08-27 17:52:00,
2013-08-27 11:21:00,49.0,48.0,30.66,SSE,164,7.0,16.0,95,0.00,,,1.00,,2013-08-27 18:21:00,
2013-08-27 11:52:00,50.0,48.0,30.65,SSE,159,10.0,18.0,92,0.00,,,1.00,,2013-08-27 18:52:00,
2013-08-27 12:22:00,51.0,48.0,30.65,South,175,5.0,18.0,90,0.00,,,1.00,,2013-08-27 19:22:00,
2013-08-27 12:52:00,51.0,48.0,30.64,South,172,6.0,15.0,89,0.00,,,1.00,,2013-08-27 19:52:00,